首页
METAR-TAF:

METAR-TAF

机场 :

特雷維索, 意大利

纬度: 45-41N, 经度: 012-06E, 海拔: 45米

当前天气观测

该预报发布于33分钟前的10:55 UTC
温度 9°C
湿度 93%
气压 1021 hPa
能見度: 4000
多云层高于2500英尺
散云层高于4000英尺
轻雾

METAR: LIPS 261055Z /////KT 4000 BR BKN025 SCT040 09/08 Q1021 RMK BKN VIS MIN 4000 WIND THR26 20002KT WIND THR08 23002KT GRN

时间: 12:28 (11:28 UTC)

预报

该预报发布于3小时和28分钟前的08:00 UTC
预报有效从26日的 09点(UTC)到 26日的 18点(UTC)
风速3节,风向西南
能見度: 1000
多云层高于3000英尺
轻雾
成为
从 26日的 09点(UTC)到 26日的 12点(UTC)
能見度: 5000
散云层高于3000英尺
散云层高于6000英尺
轻雾

TAF: LIPS 260800Z 2609/2618 22003KT 1000 BR BKN030 BECMG 2609/2612 5000 BR SCT030 SCT060

超过4000个机场的气象观测和天气预报(METAR&TAF报告)。

可查询的气象台以黄色和红色小点在地图上表示。

将鼠标移到小点上方,可查看气象台名称。

然后点击查看天气观测和预报。

如需切换地图:点击带黑十字的绿色按钮放大地图;点击带横线的绿色按钮缩小地图;或者点击绿色箭头查看邻近地区的地图。


METAR-TAF: